Terminal Aerodrome Forecast
Issued by NWS Shreveport, LA

Home | Current Version | Previous Version | Text Only | Print | Product List | Glossary On
Versions: 1 2 3 4 5 6 7 8 9 10 11 12 13 14 15 16 17 18
342
FTUS44 KSHV 240530
TAFTXK
TAF
KTXK 240530Z 2406/2506 VRB03KT P6SM SCT150
      TEMPO 2409/2413 3SM BR
     FM241700 VRB05KT P6SM VCTS SCT050CB
     FM250300 00000KT P6SM SCT150=

USA.gov is the U.S. government's official web portal to all federal, state and local government web resources and services.